Flight Track Log - Related Links

Times and Time Zones

All times are in EDT time to prevent confusion due to time zone crossing. See the SKW4535 flight status page for this flight to view local times or setup timezone preferences in your user account.

Time Position Orientation Groundspeed Altitude Reporting Facility
EDT Latitude Longitude Course Direction KTS MPH feet Rate Location/Type
Fri 09:43:26 AM 36.0744 -115.1608 39° Northeast 129 148 3,200  Level Los Angeles Center
Fri 09:43:44 AM 36.0742 -115.1794 269° West 172 198 4,200 2,886 Climbing Los Angeles Center
Fri 09:44:45 AM 36.0758 -115.2561 272° West 225 259 7,000 2,815 Climbing Los Angeles Center
Fri 09:45:05 AM 36.0792 -115.2719 285° West 212 244 8,000 3,541 Climbing Los Angeles Center
Fri 09:45:46 AM 36.1244 -115.3014 332° Northwest 251 289 10,600 3,290 Climbing Los Angeles Center
Fri 09:46:00 AM 36.1833 -114.9944 90° East  Level FlightAware Approximate
Fri 09:46:07 AM 36.1411 -115.2972 11° North 249 287 11,400  Level Los Angeles Center
Fri 09:46:47 AM 36.1758 -115.2497 48° Northeast 266 306 13,700 2,656 Climbing Los Angeles Center
Fri 09:47:00 AM 36.1833 -114.8618 90° East  Level FlightAware Approximate
Fri 09:47:08 AM 36.1839 -115.2264 67° East 262 302 14,100  Level Los Angeles Center
Fri 09:47:47 AM 36.1978 -115.1414 79° East 343 395 15,200 1,967 Climbing Los Angeles Center
Fri 09:48:00 AM 36.2220 -114.7447 39° Northeast  Level FlightAware Approximate
Fri 09:48:09 AM 36.1969 -115.1125 92° East 346 398 16,100  Level Los Angeles Center
Fri 09:49:11 AM 36.1975 -114.9906 90° East 355 409 18,800 2,780 Climbing Los Angeles Center
Fri 09:50:12 AM 36.1983 -114.8372 90° East 371 427 21,800 2,537 Climbing Los Angeles Center
Fri 09:51:14 AM 36.2522 -114.7319 58° Northeast 372 428 24,000 2,049 Climbing Los Angeles Center
Fri 09:52:15 AM 36.3364 -114.6531 37° Northeast 377 434 26,000 1,854 Climbing Los Angeles Center
Fri 09:53:17 AM 36.4236 -114.5692 38° Northeast 393 452 27,800 1,463 Climbing Los Angeles Center
Fri 09:54:18 AM 36.5131 -114.4850 37° Northeast 402 463 29,000 984 Climbing Los Angeles Center
Fri 09:55:19 AM 36.6081 -114.4053 34° Northeast 411 473 29,800 732 Climbing Los Angeles Center
Fri 09:56:21 AM 36.7108 -114.3258 32° Northeast 429 494 30,500 585 Climbing Los Angeles Center
Fri 09:57:22 AM 36.8203 -114.2414 32° Northeast 456 525 31,000 244 Climbing Los Angeles Center
Fri 09:58:24 AM 36.9536 -114.1389 32° Northeast 468 539 31,000  Level Los Angeles Center
Fri 09:59:25 AM 37.0625 -114.0547 32° Northeast 463 533 31,000  Level Los Angeles Center
Fri 10:00:15 AM 37.1461 -113.9878 33° Northeast 457 526 31,000  Level Salt Lake Center
Fri 10:01:16 AM 37.2536 -113.9042 32° Northeast 455 524 31,000  Level Salt Lake Center
Fri 10:02:18 AM 37.3597 -113.8189 33° Northeast 454 522 31,000  Level Salt Lake Center
Fri 10:03:19 AM 37.4658 -113.7358 32° Northeast 451 519 31,000  Level Salt Lake Center
Fri 10:04:21 AM 37.5711 -113.6517 32° Northeast 449 517 31,000  Level Salt Lake Center
Fri 10:05:22 AM 37.6761 -113.5686 32° Northeast 446 513 31,000  Level Salt Lake Center
Fri 10:06:23 AM 37.7797 -113.4858 32° Northeast 442 509 31,000  Level Salt Lake Center
Fri 10:07:25 AM 37.9019 -113.3867 33° Northeast 434 499 31,000  Level Salt Lake Center
Fri 10:08:26 AM 38.0039 -113.3042 33° Northeast 434 499 31,000  Level Salt Lake Center
Fri 10:09:28 AM 38.1044 -113.2231 32° Northeast 428 493 31,000  Level Salt Lake Center
Fri 10:10:29 AM 38.2069 -113.1406 32° Northeast 434 499 31,000  Level Salt Lake Center
Fri 10:11:31 AM 38.3078 -113.0592 32° Northeast 429 494 31,000  Level Salt Lake Center
Fri 10:12:32 AM 38.4117 -112.9847 29° Northeast 429 494 31,000  Level Salt Lake Center
Fri 10:13:33 AM 38.5214 -112.9292 22° Northeast 425 489 31,000  Level Salt Lake Center
Fri 10:14:35 AM 38.6300 -112.8697 23° Northeast 424 488 31,000  Level Salt Lake Center
Fri 10:15:36 AM 38.7378 -112.8119 23° Northeast 422 486 31,000  Level Salt Lake Center
Fri 10:16:38 AM 38.8472 -112.7553 22° Northeast 424 488 31,000  Level Salt Lake Center
Fri 10:17:39 AM 38.9761 -112.6833 23° Northeast 422 486 31,000  Level Salt Lake Center
Fri 10:18:41 AM 39.0844 -112.6250 23° Northeast 422 486 31,000  Level Salt Lake Center
Fri 10:19:42 AM 39.1922 -112.5667 23° Northeast 422 486 31,000  Level Salt Lake Center
Fri 10:20:43 AM 39.2917 -112.5136 22° Northeast 421 484 31,000  Level Salt Lake Center
Fri 10:21:45 AM 39.4042 -112.4717 16° North 421 484 31,000 -98 Level Salt Lake Center
Fri 10:22:46 AM 39.5400 -112.4272 14° North 421 484 30,800 -1,561 Descending Salt Lake Center
Fri 10:23:48 AM 39.6508 -112.3906 14° North 413 475 27,800 -2,927 Descending Salt Lake Center
Fri 10:24:49 AM 39.7569 -112.3550 14° North 398 458 24,800 -2,927 Descending Salt Lake Center
Fri 10:25:51 AM 39.8589 -112.3211 14° North 383 441 21,800 -3,097 Descending Salt Lake Center
Fri 10:26:22 AM 39.9161 -112.3117 North 373 429 20,000 -2,951 Descending Salt Lake Center
Fri 10:26:52 AM 39.9578 -112.2867 25° Northeast 368 423 18,800 -2,800 Descending Salt Lake Center
Fri 10:27:22 AM 40.0167 -112.2756 North 360 414 17,200 -1,742 Descending Salt Lake Center
Fri 10:27:54 AM 40.0517 -112.2542 25° Northeast 350 403 17,000 -269 Descending Salt Lake Center
Fri 10:28:29 AM 40.1136 -112.2433 North 337 388 16,900 -197 Descending Salt Lake Center
Fri 10:28:55 AM 40.1408 -112.2256 27° Northeast 333 383 16,800 -1,279 Descending Salt Lake Center
Fri 10:29:30 AM 40.2044 -112.2131 North 332 382 15,600 -1,548 Descending Salt Lake Center
Fri 10:29:57 AM 40.2308 -112.1944 28° Northeast 333 383 15,200 -1,418 Descending Salt Lake Center
Fri 10:30:25 AM 40.2869 -112.1828 North 338 389 14,300 -1,672 Descending Salt Lake Center
Fri 10:30:58 AM 40.3408 -112.1575 20° North 341 392 13,500 -885 Descending Salt Lake Center
Fri 10:31:26 AM 40.3758 -112.1531 North 336 387 13,400 -290 Descending Salt Lake Center
Fri 10:32:00 AM 40.4228 -112.1297 21° North 306 352 13,200 -393 Descending Salt Lake Center
Fri 10:32:27 AM 40.4539 -112.1239 North 291 335 13,000 -484 Descending Salt Lake Center
Fri 10:33:02 AM 40.4992 -112.1036 19° North 287 330 12,700 -900 Descending Salt Lake Center
Fri 10:33:27 AM 40.5367 -112.0961 North 291 335 12,100 -1,279 Descending Salt Lake Center
Fri 10:34:03 AM 40.5794 -112.0811 15° North 294 338 11,400 -1,082 Descending Salt Lake Center
Fri 10:34:28 AM 40.6181 -112.0828 358° North 288 331 11,000 -484 Descending Salt Lake Center
Fri 10:35:05 AM 40.6547 -112.0797 North 272 313 10,900  Descending Salt Lake Center
Fri 10:35:29 AM 40.6858 -112.0883 348° North 252 290 11,000  Climbing Salt Lake Center
Fri 10:36:07 AM 40.7211 -112.0878 North 244 281 10,900  Descending Salt Lake Center
Fri 10:36:30 AM 40.7536 -112.0936 352° North 243 280 11,000 98 Climbing Salt Lake Center
Fri 10:37:08 AM 40.7881 -112.0958 357° North 241 277 11,000  Level Salt Lake Center
Fri 10:37:31 AM 40.8244 -112.1036 351° North 246 283 11,000 -194 Level Salt Lake Center
Fri 10:38:10 AM 40.8561 -112.1042 359° North 244 281 10,800 -900 Descending Salt Lake Center
Fri 10:38:31 AM 40.8903 -112.1097 353° North 244 281 10,100 -1,452 Descending Salt Lake Center
Fri 10:39:12 AM 40.9369 -112.1144 356° North 243 280 9,300 -1,377 Descending Salt Lake Center
Fri 10:39:32 AM 40.9558 -112.1044 22° Northeast 240 276 8,700 -1,742 Descending Salt Lake Center
Fri 10:40:14 AM 40.9603 -112.0500 84° East 235 270 7,500 -1,714 Descending Salt Lake Center

Login

Don't have an account? Register now (free) for customized features, flight alerts, and more!